createdAt,value
2023-05-07T00:02:10.862Z,6.45
2023-05-07T00:05:45.956Z,6.42
2023-05-07T00:09:23.086Z,6.40
2023-05-07T00:13:01.757Z,6.37
2023-05-07T00:16:38.490Z,6.36
2023-05-07T00:20:16.823Z,6.35
2023-05-07T00:23:54.999Z,6.33
2023-05-07T00:27:32.068Z,6.30
2023-05-07T00:31:09.110Z,6.27
2023-05-07T00:34:46.882Z,6.25
2023-05-07T00:38:24.767Z,6.22
2023-05-07T00:42:02.289Z,6.21
2023-05-07T00:45:40.572Z,6.19
2023-05-07T00:49:18.136Z,6.18
2023-05-07T00:52:56.303Z,6.16
2023-05-07T00:56:33.619Z,6.15
2023-05-07T01:00:13.201Z,6.13
2023-05-07T01:03:48.605Z,6.11
2023-05-07T01:07:26.437Z,6.10
2023-05-07T01:11:04.830Z,6.08
2023-05-07T01:14:41.761Z,6.06
2023-05-07T01:18:19.503Z,6.05
2023-05-07T01:22:04.320Z,6.05
2023-05-07T01:25:34.774Z,6.05
2023-05-07T01:29:12.628Z,6.03
2023-05-07T01:32:58.114Z,6.03
2023-05-07T01:36:30.256Z,6.02
2023-05-07T01:40:06.319Z,6.01
2023-05-07T01:47:21.911Z,6.00
2023-05-07T01:50:58.746Z,5.99
2023-05-07T01:54:36.063Z,5.97
2023-05-07T01:58:13.510Z,5.95
2023-05-07T02:01:51.274Z,5.94
2023-05-07T02:05:28.761Z,5.93
2023-05-07T02:09:06.420Z,5.90
2023-05-07T02:12:44.243Z,5.90
2023-05-07T02:16:22.983Z,5.89
2023-05-07T02:19:59.738Z,5.87
2023-05-07T02:23:37.577Z,5.87
2023-05-07T02:27:14.826Z,5.87
2023-05-07T02:30:52.435Z,5.86
2023-05-07T02:34:30.513Z,5.86
2023-05-07T02:38:07.744Z,5.85
2023-05-07T02:41:45.607Z,5.85
2023-05-07T02:45:23.638Z,5.85
2023-05-07T02:49:00.982Z,5.85
2023-05-07T02:52:38.816Z,5.87
2023-05-07T02:56:16.813Z,5.88
2023-05-07T02:59:53.854Z,5.88
2023-05-07T03:03:31.981Z,5.87
2023-05-07T03:07:09.336Z,5.87
2023-05-07T03:10:47.147Z,5.87
2023-05-07T03:14:24.438Z,5.88
2023-05-07T03:21:39.811Z,5.87
2023-05-07T03:25:17.683Z,5.89
2023-05-07T03:28:56.603Z,5.88
2023-05-07T03:32:33.591Z,5.89
2023-05-07T03:36:10.966Z,5.89
2023-05-07T03:39:48.347Z,5.89
2023-05-07T03:43:26.321Z,5.90
2023-05-07T03:47:04.863Z,5.91
2023-05-07T03:50:41.518Z,5.94
2023-05-07T03:54:19.334Z,5.94
2023-05-07T03:57:57.861Z,5.96
2023-05-07T04:01:34.697Z,5.99
2023-05-07T04:05:12.492Z,6.00
2023-05-07T04:08:50.073Z,6.03
2023-05-07T04:16:06.604Z,6.10
2023-05-07T04:19:46.751Z,6.14
2023-05-07T04:23:20.899Z,6.16
2023-05-07T04:26:59.484Z,6.20
2023-05-07T04:30:35.974Z,6.25
2023-05-07T04:34:13.347Z,6.25
2023-05-07T04:37:51.561Z,6.28
2023-05-07T04:41:33.990Z,6.32
2023-05-07T04:45:07.443Z,6.38
2023-05-07T04:48:44.292Z,6.50
2023-05-07T04:52:21.863Z,6.69
2023-05-07T04:55:59.884Z,6.90
2023-05-07T04:59:37.042Z,7.13
2023-05-07T05:03:15.003Z,7.38
2023-05-07T05:06:53.127Z,7.66
2023-05-07T05:10:30.733Z,8.04
2023-05-07T05:14:08.216Z,8.45
2023-05-07T05:17:46.336Z,8.89
2023-05-07T05:21:23.949Z,9.12
2023-05-07T05:25:01.841Z,9.33
2023-05-07T05:28:38.584Z,9.40
2023-05-07T05:32:16.976Z,9.45
2023-05-07T05:43:09.969Z,9.72
2023-05-07T05:46:47.308Z,9.96
2023-05-07T05:50:24.824Z,10.08
2023-05-07T05:54:02.189Z,10.26
2023-05-07T05:57:40.892Z,10.43
2023-05-07T06:01:19.292Z,10.71
2023-05-07T06:04:55.703Z,10.98
2023-05-07T06:08:33.106Z,11.40
2023-05-07T06:12:10.752Z,11.56
2023-05-07T06:15:48.448Z,11.58
2023-05-07T06:19:27.687Z,11.62
2023-05-07T06:23:03.537Z,11.83
2023-05-07T06:26:41.540Z,12.01
2023-05-07T06:30:19.102Z,12.06
2023-05-07T06:33:56.758Z,12.12
2023-05-07T06:37:34.471Z,12.23
2023-05-07T06:41:12.026Z,12.21
2023-05-07T06:44:49.501Z,12.22
2023-05-07T06:48:27.421Z,12.27
2023-05-07T06:52:05.142Z,12.43
2023-05-07T06:55:42.809Z,12.81
2023-05-07T06:59:20.617Z,12.96
2023-05-07T07:02:58.341Z,13.00
2023-05-07T07:06:35.925Z,13.12
2023-05-07T07:10:13.648Z,13.20
2023-05-07T07:13:51.961Z,13.25
2023-05-07T07:17:28.685Z,13.14
2023-05-07T07:21:06.570Z,13.16
2023-05-07T07:24:44.273Z,13.16
2023-05-07T07:28:23.017Z,13.19
2023-05-07T07:31:59.535Z,13.29
2023-05-07T07:35:37.178Z,13.45
2023-05-07T07:39:14.911Z,13.42
2023-05-07T07:42:53.306Z,13.47
2023-05-07T07:46:31.299Z,13.46
2023-05-07T07:50:09.628Z,13.53
2023-05-07T07:53:45.346Z,13.53
2023-05-07T07:57:23.410Z,13.44
2023-05-07T08:01:01.052Z,13.58
2023-05-07T08:04:39.005Z,13.99
2023-05-07T08:08:16.043Z,14.13
2023-05-07T08:11:54.180Z,14.06
2023-05-07T08:15:31.628Z,13.95
2023-05-07T08:19:09.253Z,13.84
2023-05-07T08:22:47.079Z,14.12
2023-05-07T08:26:24.735Z,14.35
2023-05-07T08:30:02.908Z,14.42
2023-05-07T08:33:40.139Z,14.49
2023-05-07T08:37:17.455Z,14.59
2023-05-07T08:40:55.589Z,14.64
2023-05-07T08:44:39.667Z,14.68
2023-05-07T08:48:16.730Z,14.74
2023-05-07T08:51:48.879Z,14.81
2023-05-07T08:55:26.426Z,14.76
2023-05-07T08:59:05.112Z,14.76
2023-05-07T09:02:41.541Z,14.67
2023-05-07T09:06:19.297Z,14.69
2023-05-07T09:09:56.944Z,14.69
2023-05-07T09:13:34.434Z,14.62
2023-05-07T09:17:11.733Z,14.45
2023-05-07T09:20:49.874Z,14.44
2023-05-07T09:24:27.474Z,14.33
2023-05-07T09:28:08.354Z,14.42
2023-05-07T09:31:43.001Z,14.51
2023-05-07T09:35:22.690Z,14.40
2023-05-07T09:39:01.180Z,14.41
2023-05-07T09:42:36.164Z,14.45
2023-05-07T09:46:15.822Z,14.47
2023-05-07T09:49:51.553Z,14.55
2023-05-07T09:53:31.083Z,14.50
2023-05-07T09:57:08.246Z,14.52
2023-05-07T10:00:44.934Z,14.58
2023-05-07T10:04:22.761Z,14.60
2023-05-07T10:08:03.983Z,14.65
2023-05-07T10:11:38.173Z,14.61
2023-05-07T10:15:15.835Z,14.63
2023-05-07T10:18:53.608Z,14.55
2023-05-07T10:22:38.437Z,14.44
2023-05-07T10:26:09.546Z,14.53
2023-05-07T10:30:04.323Z,14.54
2023-05-07T10:33:27.526Z,14.52
2023-05-07T10:37:02.225Z,14.41
2023-05-07T10:40:39.187Z,14.24
2023-05-07T10:52:14.858Z,14.06
2023-05-07T10:55:34.957Z,14.00
2023-05-07T10:59:35.972Z,14.11
2023-05-07T11:03:02.700Z,14.19
2023-05-07T11:06:41.617Z,14.19
2023-05-07T11:10:17.944Z,14.15
2023-05-07T11:13:55.411Z,14.04
2023-05-07T11:17:37.471Z,14.26
2023-05-07T11:21:11.414Z,14.46
2023-05-07T11:24:48.463Z,14.47
2023-05-07T11:28:26.314Z,14.67
2023-05-07T11:32:05.506Z,14.81
2023-05-07T11:35:43.637Z,14.64
2023-05-07T11:39:29.838Z,14.57
2023-05-07T11:42:56.835Z,14.55
2023-05-07T11:46:34.899Z,14.53
2023-05-07T11:50:12.149Z,14.62
2023-05-07T11:53:50.525Z,14.65
2023-05-07T11:57:28.489Z,14.74
2023-05-07T12:01:05.345Z,14.61
2023-05-07T12:04:43.240Z,14.41
2023-05-07T12:08:22.333Z,14.22
2023-05-07T12:11:58.162Z,14.07
2023-05-07T12:15:36.683Z,13.99
2023-05-07T12:19:15.750Z,13.91
2023-05-07T12:22:53.195Z,13.70
2023-05-07T12:26:28.924Z,13.58
2023-05-07T12:30:07.523Z,13.50
2023-05-07T12:37:27.535Z,13.21
2023-05-07T12:40:59.404Z,13.13
2023-05-07T12:44:37.266Z,13.08
2023-05-07T12:48:14.833Z,13.00
2023-05-07T12:51:53.180Z,12.90
2023-05-07T12:55:34.791Z,12.88
2023-05-07T12:59:38.524Z,12.87
2023-05-07T13:02:47.110Z,12.85
2023-05-07T13:06:23.968Z,12.79
2023-05-07T13:10:00.851Z,12.79
2023-05-07T13:13:41.038Z,12.78
2023-05-07T13:17:16.299Z,12.77
2023-05-07T13:20:54.889Z,12.72
2023-05-07T13:24:31.650Z,12.70
2023-05-07T13:28:11.186Z,12.60
2023-05-07T13:31:48.482Z,12.58
2023-05-07T13:35:24.521Z,12.53
2023-05-07T13:39:02.277Z,12.44
2023-05-07T13:42:40.079Z,12.38
2023-05-07T13:46:17.809Z,12.26
2023-05-07T13:49:55.472Z,12.23
2023-05-07T13:53:33.028Z,12.17
2023-05-07T13:57:10.588Z,12.15
2023-05-07T14:00:48.339Z,12.11
2023-05-07T14:04:26.623Z,12.03
2023-05-07T14:08:22.514Z,12.00
2023-05-07T14:11:42.820Z,11.91
2023-05-07T14:15:18.808Z,11.82
2023-05-07T14:18:58.467Z,11.71
2023-05-07T14:22:34.168Z,11.64
2023-05-07T14:26:12.031Z,11.68
2023-05-07T14:29:52.091Z,11.73
2023-05-07T14:33:27.277Z,11.74
2023-05-07T14:37:04.886Z,11.69
2023-05-07T14:40:42.834Z,11.68
2023-05-07T14:44:20.350Z,11.72
2023-05-07T14:47:58.214Z,11.87
2023-05-07T14:51:35.658Z,11.95
2023-05-07T14:58:51.233Z,12.02
2023-05-07T15:02:47.677Z,12.10
2023-05-07T15:06:06.438Z,12.21
2023-05-07T15:09:44.964Z,12.27
2023-05-07T15:13:22.237Z,12.30
2023-05-07T15:16:59.562Z,12.26
2023-05-07T15:20:38.029Z,12.19
2023-05-07T15:24:15.053Z,12.05
2023-05-07T15:27:52.760Z,11.90
2023-05-07T15:31:30.404Z,11.73
2023-05-07T15:35:08.924Z,11.55
2023-05-07T15:38:45.617Z,11.40
2023-05-07T15:42:23.310Z,11.34
2023-05-07T15:46:01.353Z,11.29
2023-05-07T15:49:38.770Z,11.22
2023-05-07T15:53:16.406Z,11.17
2023-05-07T15:56:54.799Z,11.14
2023-05-07T16:00:33.208Z,11.06
2023-05-07T16:04:09.866Z,11.05
2023-05-07T16:07:49.123Z,11.15
2023-05-07T16:11:25.648Z,11.18
2023-05-07T16:15:03.932Z,11.11
2023-05-07T16:18:41.896Z,10.96
2023-05-07T16:22:18.454Z,10.85
2023-05-07T16:25:59.172Z,10.81
2023-05-07T16:33:12.939Z,10.69
2023-05-07T16:36:49.631Z,10.60
2023-05-07T16:40:28.894Z,10.51
2023-05-07T16:44:05.057Z,10.42
2023-05-07T16:47:42.314Z,10.36
2023-05-07T16:51:19.915Z,10.29
2023-05-07T16:55:01.423Z,10.27
2023-05-07T16:58:35.002Z,10.26
2023-05-07T17:02:12.997Z,10.24
2023-05-07T17:05:52.963Z,10.22
2023-05-07T17:09:27.538Z,10.19
2023-05-07T17:13:05.499Z,10.19
2023-05-07T17:27:37.169Z,10.21
2023-05-07T17:31:13.935Z,10.20
2023-05-07T17:38:31.512Z,10.10
2023-05-07T17:42:08.946Z,10.09
2023-05-07T17:45:44.577Z,10.06
2023-05-07T17:49:23.435Z,10.05
2023-05-07T17:56:42.328Z,10.00
2023-05-07T18:00:15.921Z,10.00
2023-05-07T18:03:53.419Z,9.92
2023-05-07T18:07:31.458Z,9.68
2023-05-07T18:11:09.237Z,9.46
2023-05-07T18:14:47.889Z,9.27
2023-05-07T18:18:24.242Z,9.12
2023-05-07T18:22:00.969Z,9.02
2023-05-07T18:25:38.458Z,9.00
2023-05-07T18:29:16.451Z,8.92
2023-05-07T18:32:54.203Z,8.86
2023-05-07T18:36:35.698Z,8.78
2023-05-07T18:40:19.027Z,8.73
2023-05-07T18:43:53.952Z,8.68
2023-05-07T18:47:26.150Z,8.65
2023-05-07T18:51:03.854Z,8.61
2023-05-07T18:54:40.306Z,8.53
2023-05-07T18:58:20.276Z,8.45
2023-05-07T19:01:55.559Z,8.39
2023-05-07T19:05:40.743Z,8.37
2023-05-07T19:09:12.434Z,8.33
2023-05-07T19:12:48.388Z,8.29
2023-05-07T19:16:26.202Z,8.19
2023-05-07T19:20:04.989Z,8.12
2023-05-07T19:27:20.070Z,8.03
2023-05-07T19:30:57.692Z,7.98
2023-05-07T19:34:34.589Z,7.95
2023-05-07T19:38:12.401Z,7.88
2023-05-07T19:41:52.260Z,7.85
2023-05-07T19:45:28.914Z,7.83
2023-05-07T19:49:05.600Z,7.81
2023-05-07T19:52:43.771Z,7.78
2023-05-07T19:56:21.033Z,7.74
2023-05-07T19:59:58.160Z,7.70
2023-05-07T20:03:36.166Z,7.66
2023-05-07T20:07:13.647Z,7.66
2023-05-07T20:10:52.255Z,7.67
2023-05-07T20:14:29.257Z,7.65
2023-05-07T20:18:07.336Z,7.62
2023-05-07T20:21:44.722Z,7.61
2023-05-07T20:25:21.953Z,7.58
2023-05-07T20:28:59.979Z,7.55
2023-05-07T20:32:57.266Z,7.55
2023-05-07T20:36:17.738Z,7.52
2023-05-07T20:39:52.879Z,7.49
2023-05-07T20:43:30.397Z,7.46
2023-05-07T20:47:08.138Z,7.45
2023-05-07T20:50:45.568Z,7.42
2023-05-07T20:54:23.660Z,7.38
2023-05-07T20:58:01.379Z,7.37
2023-05-07T21:01:39.442Z,7.36
2023-05-07T21:05:16.592Z,7.33
2023-05-07T21:08:54.358Z,7.32
2023-05-07T21:12:32.082Z,7.31
2023-05-07T21:16:10.591Z,7.28
2023-05-07T21:19:48.057Z,7.25
2023-05-07T21:23:24.682Z,7.23
2023-05-07T21:27:03.229Z,7.21
2023-05-07T21:30:40.615Z,7.18
2023-05-07T21:34:17.512Z,7.15
2023-05-07T21:37:55.555Z,7.11
2023-05-07T21:41:32.950Z,7.10
2023-05-07T21:45:12.712Z,7.06
2023-05-07T21:48:48.513Z,7.04
2023-05-07T21:52:26.465Z,7.04
2023-05-07T21:56:05.215Z,7.01
2023-05-07T21:59:41.509Z,7.00
2023-05-07T22:03:18.993Z,7.00
2023-05-07T22:06:56.802Z,6.98
2023-05-07T22:10:34.209Z,6.98
2023-05-07T22:14:12.210Z,6.99
2023-05-07T22:17:49.671Z,6.99
2023-05-07T22:21:27.567Z,7.03
2023-05-07T22:25:06.425Z,7.07
2023-05-07T22:28:43.216Z,7.13
2023-05-07T22:32:20.202Z,7.19
2023-05-07T22:35:58.395Z,7.21
2023-05-07T22:39:35.859Z,7.20
2023-05-07T22:43:13.890Z,7.18
2023-05-07T22:46:51.549Z,7.14
2023-05-07T22:50:29.195Z,7.06
2023-05-07T22:54:08.634Z,7.01
2023-05-07T22:57:44.381Z,6.99
2023-05-07T23:01:21.597Z,7.03
2023-05-07T23:05:01.011Z,7.05
2023-05-07T23:08:36.967Z,7.07
2023-05-07T23:12:14.833Z,7.10
2023-05-07T23:15:52.414Z,7.13
2023-05-07T23:19:30.413Z,7.10
2023-05-07T23:23:07.860Z,7.03
2023-05-07T23:26:45.651Z,6.98
2023-05-07T23:30:23.043Z,6.93
2023-05-07T23:34:01.032Z,6.88
2023-05-07T23:37:39.265Z,6.84
2023-05-07T23:41:16.176Z,6.81
2023-05-07T23:44:53.910Z,6.81
2023-05-07T23:48:32.005Z,6.83
2023-05-07T23:52:09.248Z,6.88
2023-05-07T23:55:47.174Z,6.87
2023-05-07T23:59:24.806Z,6.85
